Australian Towns and Cities METAR Reports

YMHB - Hobart/Tasmania, Australia
Distance from Franklin: NE 55km
Updated: 24/01/2019 17:00 AEDT
Clear
Clear
 Wind from NE
Wind: NE 35 km/h
Temperature: 24°C
Dew Point: 11°C
Humidity: 44%
Barometer: 1012 hPa
Summary: Clear
Visibility: greater than 10 km
2019/01/24 06:00 YMHB 240600Z 05019KT CAVOK 24/11 Q1012
YMLT - Launceston Airpo, Australia
Distance from Franklin: N 179km
Updated: 24/01/2019 17:00 AEDT
Clear
Clear
 Wind from NW
Wind: NW 30 km/h
Temperature: 24°C
Dew Point: 8°C
Humidity: 36%
Barometer: 1014 hPa
Clouds: Clear
Visibility: 10 km
2019/01/24 06:00 YMLT 240600Z AUTO 32016KT 9999 // NCD 24/08 Q1014
 
YMML - Melbourne Intl A, Australia
Distance from Franklin: NNW 631km
Updated: 24/01/2019 17:00 AEDT
Clear
Clear
 Wind from N
Wind: N 20 km/h
Temperature: 42°C
Dew Point: 6°C
Humidity: 11%
Barometer: 1007 hPa
Summary: Clear
Visibility: greater than 10 km
2019/01/24 06:00 YMML 240600Z 01011KT CAVOK 42/06 Q1007
YSCB - Canberra (civ/Mi, Australia
Distance from Franklin: NNE 888km
Updated: 24/01/2019 17:00 AEDT
Clear
Clear
 Wind from E
Wind: E 15 km/h
Temperature: 31°C
Heat Index: 32°C
Dew Point: 17°C
Humidity: 43%
Barometer: 1015 hPa
Clouds: Clear
Visibility: 10 km
2019/01/24 06:00 YSCB 240600Z AUTO 09008KT 9999 // NCD 31/17 Q1015 NOSIG
 
YSSY - Sydney Intl Airp, Australia
Distance from Franklin: NNE 1083km
Updated: 24/01/2019 17:00 AEDT
Mostly cloudy
Mostly cloudy
 Wind from S
Wind: S 24 km/h
Temperature: 24°C
Dew Point: 20°C
Humidity: 78%
Barometer: 1015 hPa
Clouds: Mostly cloudy
Visibility: 10 km
Cloud details: Mostly cloudy 549 m
Mostly cloudy 1372 m
2019/01/24 06:00 YSSY 240600Z 18013KT 9999 BKN018 BKN045 24/20 Q1015 NOSIG
YPAD - Adelaide Intl Ar, Australia
Distance from Franklin: NW 1166km
Updated: 24/01/2019 17:00 AEDT
Clear
Clear
 Wind from NW
Wind: NW 22 km/h
Temperature: 44°C
Dew Point: 7°C
Humidity: 11%
Barometer: 1002 hPa
Summary: Clear
Visibility: greater than 10 km
2019/01/24 06:00 YPAD 240600Z 31012KT CAVOK 44/07 Q1002 NOSIG
 
YBBN - Brisbane Intl Ar, Australia
Distance from Franklin: NNE 1836km
Updated: 24/01/2019 17:00 AEDT
Few Clouds
Few Clouds
 Wind from NNE
Wind: NNE 26 km/h
Temperature: 30°C
Heat Index: 31°C
Dew Point: 18°C
Humidity: 49%
Barometer: 1012 hPa
Clouds: Few Clouds
Visibility: 10 km
Cloud details: Few Clouds 1341 m
2019/01/24 06:00 YBBN 240600Z 03014KT 9999 FEW044 30/18 Q1012
YBMK - Mackay, Australia
Distance from Franklin: N 2456km
Updated: 24/01/2019 17:00 AEDT
Clear
Clear
 Wind from E
Wind: E 28 km/h
Temperature: 29°C
Heat Index: 32°C
Dew Point: 22°C
Humidity: 66%
Barometer: 1010 hPa
Clouds: Clear
Visibility: 10 km
2019/01/24 06:00 YBMK 240600Z AUTO 10015KT 9999 // NCD 29/22 Q1010
 
YBAS - Alice Springs Ar, Australia
Distance from Franklin: NNW 2462km
Updated: 24/01/2019 17:09 AEDT
Clear
Clear
 Wind from E
Wind: E 31 km/h, Gust: 50 km/h
Temperature: 43°C
Dew Point: 3°C
Humidity: 8%
Barometer: 1005 hPa
Clouds: Clear
Visibility: 10 km
2019/01/24 06:09 YBAS 240609Z AUTO 08017G27KT 9999 // NCD 43/03 Q1005
YBTL - Townsville(Civ/M, Australia
Distance from Franklin: N 2655km
Updated: 24/01/2019 17:00 AEDT
Mostly cloudy
Mostly cloudy
 Wind from ENE
Wind: ENE 28 km/h
Temperature: 29°C
Heat Index: 32°C
Dew Point: 23°C
Humidity: 70%
Barometer: 1008 hPa
Clouds: Mostly cloudy
Visibility: 10 km
Cloud details: Few Clouds 762 m
Partly cloudy 6248 m
Mostly cloudy 7468 m
2019/01/24 06:00 YBTL 240600Z 06015KT 9999 FEW025 SCT205 BKN245 29/23 Q1008 NOSIG
 
YBCS - Cairns Airport, Australia
Distance from Franklin: N 2923km
Updated: 24/01/2019 17:00 AEDT
Light rain, Showers, Mostly cloudy
Light rain, Showers, Mostly cloudy
 Wind from SE
Wind: SE 13 km/h
Temperature: 27°C
Heat Index: 32°C
Dew Point: 26°C
Humidity: 94%
Barometer: 1007 hPa
Summary: Light rain, Showers
Clouds: Mostly cloudy
Visibility: 10 km
Cloud details: Partly cloudy 732 m
Mostly cloudy 975 m
Mostly cloudy 1280 m
2019/01/24 06:00 YBCS 240600Z AUTO 14007KT 9999 -SHRA SCT024 BKN032 BKN042 27/26 Q1007 RESHRA FM0800 16010KT 9999 -SHRA FEW020 BKN030 INTER 0600/0900 3000 SHRA FEW008 BKN015
YPPH - Perth Intl/Belmo, Australia
Distance from Franklin: WNW 2982km
Updated: 24/01/2019 17:00 AEDT
Overcast
Overcast
 Wind from SSW
Wind: SSW 20 km/h
Temperature: 19°C
Dew Point: 12°C
Humidity: 64%
Barometer: 1014 hPa
Clouds: Overcast
Visibility: 10 km
Cloud details: Few Clouds 732 m
Overcast 914 m
2019/01/24 06:00 YPPH 240600Z 20011KT 9999 FEW024 OVC030 19/12 Q1014 NOSIG
 
YPDN - Darwin (civ/Mil), Australia
Distance from Franklin: NNW 3749km
Updated: 24/01/2019 17:00 AEDT
Mostly cloudy
Mostly cloudy
 Wind from W
Wind: W 28 km/h
Temperature: 30°C
Heat Index: 36°C
Dew Point: 25°C
Humidity: 75%
Barometer: 1005 hPa
Clouds: Mostly cloudy
Visibility: 10 km
Cloud details: Partly cloudy 762 m
Mostly cloudy 5182 m
2019/01/24 06:00 YPDN 240600Z 28015KT 9999 SCT025 BKN170 30/25 Q1005 INTER 0600/0700 2000 SHRA BKN015 INTER 0700/0800 2000 SHRA BKN015
YBWX - Barrow Island, Australia
Distance from Franklin: NW 3832km
Updated: 24/01/2019 17:00 AEDT

 Wind from SW
Wind: SW 33 km/h
Temperature: 32°C
Heat Index: 34°C
Dew Point: 19°C
Humidity: 46%
Barometer: 1002 hPa
2019/01/24 06:00 YBWX 240600Z AUTO 23018KT //// // ////// 32/19 Q1002